Flight Track Log - Related Links

Times and Time Zones

All times are in EDT time to prevent confusion due to time zone crossing. See the CHQ4986 flight status page for this flight to view local times or setup timezone preferences in your user account.

Time Position Orientation Groundspeed Altitude Reporting Facility
EDT Latitude Longitude Course Direction KTS MPH feet Rate Location/Type
Fri 10:04:41 AM 33.6583 -84.3258 North 404 465 4,000  Level Atlanta Center
Fri 10:05:41 AM 33.6731 -84.2411 78° East 307 353 5,900 1,850 Climbing Atlanta Center
Fri 10:06:00 AM 33.8721 -84.2054 320° Northwest  Level FlightAware Approximate
Fri 10:06:41 AM 33.7211 -84.1836 45° Northeast 270 311 7,700  Level Atlanta Center
Fri 10:07:00 AM 33.9573 -84.2667 North  Level FlightAware Approximate
Fri 10:07:45 AM 33.8000 -84.1833 360° North 261 300 10,000  Level Atlanta TRACON
Fri 10:08:00 AM 34.0609 -84.2667 North  Level FlightAware Approximate
Fri 10:08:45 AM 33.8667 -84.2167 337° Northwest 300 345 10,300  Level Atlanta TRACON
Fri 10:09:00 AM 34.1645 -84.2667 North  Level FlightAware Approximate
Fri 10:10:41 AM 34.0194 -84.2769 342° North 322 371 12,700  Level Atlanta Center
Fri 10:11:41 AM 34.1133 -84.2797 359° North 327 376 14,100 1,400 Climbing Atlanta Center
Fri 10:12:41 AM 34.2094 -84.2800 360° North 335 386 15,500 1,450 Climbing Atlanta Center
Fri 10:13:41 AM 34.3033 -84.2778 North 335 386 17,000 1,300 Climbing Atlanta Center
Fri 10:14:41 AM 34.3994 -84.2553 11° North 335 386 18,100 850 Climbing Atlanta Center
Fri 10:15:41 AM 34.4953 -84.2328 11° North 350 403 18,700 800 Climbing Atlanta Center
Fri 10:16:41 AM 34.5956 -84.2103 10° North 361 415 19,700 1,050 Climbing Atlanta Center
Fri 10:17:41 AM 34.7083 -84.1853 10° North 361 415 20,800 1,050 Climbing Atlanta Center
Fri 10:18:41 AM 34.8128 -84.1603 11° North 367 422 21,800 1,000 Climbing Atlanta Center
Fri 10:19:41 AM 34.9169 -84.1375 10° North 373 429 22,800 1,000 Climbing Atlanta Center
Fri 10:20:41 AM 35.0236 -84.1097 12° North 378 435 23,800 1,000 Climbing Atlanta Center
Fri 10:21:41 AM 35.1300 -84.0844 11° North 378 435 24,800 1,100 Climbing Atlanta Center
Fri 10:22:41 AM 35.2364 -84.0567 12° North 378 435 26,000 1,200 Climbing Atlanta Center
Fri 10:23:41 AM 35.3406 -84.0336 10° North 383 441 27,200 1,200 Climbing Atlanta Center
Fri 10:24:41 AM 35.4428 -84.0081 12° North 383 441 28,400 1,200 Climbing Atlanta Center
Fri 10:25:41 AM 35.5450 -83.9672 18° North 377 434 29,600 1,200 Climbing Atlanta Center
Fri 10:26:41 AM 35.6389 -83.9136 25° Northeast 371 427 30,800 700 Climbing Atlanta Center
Fri 10:27:41 AM 35.7369 -83.8569 25° Northeast 371 427 31,000 200 Climbing Atlanta Center
Fri 10:28:41 AM 35.8411 -83.7953 26° Northeast 392 451 31,200 650 Climbing Atlanta Center
Fri 10:29:41 AM 35.9453 -83.7386 24° Northeast 404 465 32,300 1,150 Climbing Atlanta Center
Fri 10:30:41 AM 36.0494 -83.6767 26° Northeast 404 465 33,500 1,200 Climbing Atlanta Center
Fri 10:31:41 AM 36.1453 -83.6197 26° Northeast 399 459 34,700 1,150 Climbing Atlanta Center
Fri 10:32:41 AM 36.2450 -83.5625 25° Northeast 394 453 35,800 650 Climbing Atlanta Center
Fri 10:33:41 AM 36.3408 -83.5025 27° Northeast 383 441 36,000 180 Climbing Atlanta Center
Fri 10:34:21 AM 36.4125 -83.4603 25° Northeast 397 457 36,100 353 Climbing Indianapolis Center
Fri 10:35:23 AM 36.5169 -83.3986 25° Northeast 411 473 36,600 435 Climbing Indianapolis Center
Fri 10:36:25 AM 36.6219 -83.3389 25° Northeast 413 475 37,000 194 Climbing Indianapolis Center
Fri 10:37:27 AM 36.7322 -83.3175 North 399 459 37,000  Level Indianapolis Center
Fri 10:38:29 AM 36.8436 -83.3039 North 399 459 37,000  Level Indianapolis Center
Fri 10:39:31 AM 36.9575 -83.2867 North 406 467 37,000  Level Indianapolis Center
Fri 10:40:33 AM 37.0717 -83.2714 North 407 468 37,000  Level Indianapolis Center
Fri 10:41:35 AM 37.1856 -83.2550 North 409 471 37,000  Level Indianapolis Center
Fri 10:42:37 AM 37.3106 -83.1719 28° Northeast 440 506 37,000  Level Indianapolis Center
Fri 10:43:39 AM 37.4117 -83.0944 31° Northeast 426 490 37,000  Level Indianapolis Center
Fri 10:44:40 AM 37.5139 -83.0153 32° Northeast 429 494 37,000  Level Indianapolis Center
Fri 10:45:42 AM 37.6139 -82.9342 33° Northeast 427 491 37,000  Level Indianapolis Center
Fri 10:46:44 AM 37.7128 -82.8572 32° Northeast 418 481 37,000  Level Indianapolis Center
Fri 10:47:46 AM 37.8136 -82.7803 31° Northeast 420 483 37,000  Level Indianapolis Center
Fri 10:48:48 AM 37.9147 -82.6908 35° Northeast 438 504 37,000  Level Indianapolis Center
Fri 10:49:50 AM 38.0253 -82.5656 42° Northeast 453 521 37,000  Level Indianapolis Center
Fri 10:50:51 AM 38.1114 -82.4711 41° Northeast 439 505 37,000  Level Indianapolis Center
Fri 10:51:53 AM 38.2011 -82.3672 42° Northeast 435 501 37,000  Level Indianapolis Center
Fri 10:52:55 AM 38.3047 -82.3169 21° North 396 456 37,000  Level Indianapolis Center
Fri 10:53:57 AM 38.4128 -82.3092 North 388 447 37,000  Level Indianapolis Center
Fri 10:54:59 AM 38.5233 -82.2989 North 395 455 37,000 -1,220 Level Indianapolis Center
Fri 10:56:00 AM 38.6575 -82.2886 North 393 452 34,500 -1,463 Descending Indianapolis Center
Fri 10:57:02 AM 38.7608 -82.2792 North 377 434 34,000 -242 Descending Indianapolis Center
Fri 10:58:04 AM 38.8644 -82.2700 North 372 428 34,000  Level Indianapolis Center
Fri 10:59:06 AM 38.9719 -82.2617 North 383 441 34,000  Level Indianapolis Center
Fri 11:00:07 AM 39.0817 -82.2506 North 391 450 34,000  Level Indianapolis Center
Fri 11:01:09 AM 39.1914 -82.2414 North 393 452 34,000 -629 Level Indianapolis Center
Fri 11:02:11 AM 39.3003 -82.2306 North 391 450 32,700 -1,597 Descending Indianapolis Center
Fri 11:03:13 AM 39.4089 -82.2214 North 389 448 30,700 -2,129 Descending Indianapolis Center
Fri 11:04:15 AM 39.5297 -82.2114 North 381 438 28,300 -2,226 Descending Indianapolis Center
Fri 11:05:17 AM 39.6372 -82.2014 North 383 441 26,100 -2,049 Descending Indianapolis Center
Fri 11:06:18 AM 39.7508 -82.1914 North 403 464 24,100 -1,220 Descending Indianapolis Center
Fri 11:07:20 AM 39.8689 -82.1808 North 419 482 23,600 -726 Descending Indianapolis Center
Fri 11:08:22 AM 39.9869 -82.1697 North 422 486 22,600 -968 Descending Indianapolis Center
Fri 11:09:24 AM 40.1019 -82.1592 North 413 475 21,600 -1,065 Descending Indianapolis Center
Fri 11:10:26 AM 40.2367 -82.1478 North 413 475 20,400 -1,016 Descending Indianapolis Center
Fri 11:11:28 AM 40.3483 -82.1378 North 419 482 19,500 -1,024 Descending Indianapolis Center
Fri 11:12:29 AM 40.4608 -82.1206 North 407 468 18,300 -944 Descending Indianapolis Center
Fri 11:12:57 AM 40.5158 -82.0742 33° Northeast 396 456 18,100 -1,091 Descending Cleveland Center
Fri 11:13:57 AM 40.6025 -81.9861 38° Northeast 397 457 16,700 -1,425 Descending Cleveland Center
Fri 11:14:17 AM 40.6300 -81.9619 34° Northeast 386 444 16,200 -1,700 Descending Cleveland Center
Fri 11:14:57 AM 40.6869 -81.9003 39° Northeast 391 450 15,000 -1,978 Descending Cleveland Center
Fri 11:15:48 AM 40.7567 -81.8303 37° Northeast 382 440 13,200 -2,054 Descending Cleveland Center
Fri 11:16:48 AM 40.8389 -81.7467 38° Northeast 363 418 11,200 -1,587 Descending Cleveland Center
Fri 11:17:49 AM 40.9306 -81.7483 359° North 322 371 10,000 -514 Descending Cleveland Center
Fri 11:19:08 AM 41.0450 -81.7614 355° North 320 368 10,000  Level Cleveland Center
Fri 11:19:51 AM 41.1075 -81.7625 359° North 323 372 10,000  Level Cleveland Center
Fri 11:20:51 AM 41.1953 -81.7531 North 318 366 10,000 -298 Level Cleveland Center
Fri 11:21:52 AM 41.2808 -81.7408 North 254 292 9,400 -1,279 Descending Cleveland Center
Fri 11:22:53 AM 41.3456 -81.7200 14° North 251 289 7,400 -1,872 Descending Cleveland Center
Fri 11:23:57 AM 41.4211 -81.6853 19° North 252 290 5,500 -1,594 Descending Cleveland Center
Fri 11:25:01 AM 41.4778 -81.6336 34° Northeast 238 274 4,000 -1,406 Descending Cleveland Center

Login

Don't have an account? Register now (free) for customized features, flight alerts, and more!